createdAt,value
2022-08-19T12:07:55.638Z,45.32
2022-08-19T12:08:55.019Z,44.71
2022-08-19T12:09:54.968Z,44.49
2022-08-19T12:10:54.887Z,44.02
2022-08-19T12:11:54.834Z,44.20
2022-08-19T12:12:59.035Z,44.39
2022-08-19T12:13:54.707Z,44.18
2022-08-19T12:14:54.641Z,43.07
2022-08-19T12:15:54.629Z,43.17
2022-08-19T12:16:54.532Z,43.88
2022-08-19T12:17:54.615Z,43.90
2022-08-19T12:18:54.406Z,44.10
2022-08-19T12:19:54.339Z,44.12
2022-08-19T12:20:54.286Z,44.32
2022-08-19T12:21:54.211Z,44.24
2022-08-19T12:22:54.169Z,44.54
2022-08-19T12:23:55.946Z,44.83
2022-08-19T12:24:54.029Z,44.64
2022-08-19T12:25:56.259Z,44.73
2022-08-19T12:26:54.159Z,44.64
2022-08-19T12:27:57.685Z,45.03
2022-08-19T12:28:53.794Z,44.93
2022-08-19T12:29:53.732Z,44.93
2022-08-19T12:30:53.655Z,44.83
2022-08-19T12:31:54.814Z,45.15
2022-08-19T12:32:53.541Z,45.15
2022-08-19T12:33:53.467Z,45.15
2022-08-19T12:34:53.423Z,44.75
2022-08-19T12:35:53.346Z,44.75
2022-08-19T12:36:53.293Z,44.75
2022-08-19T12:37:57.090Z,44.97
2022-08-19T12:38:53.168Z,44.97
2022-08-19T12:39:53.162Z,44.78
2022-08-19T12:40:55.970Z,45.17
2022-08-19T12:41:54.712Z,45.27
2022-08-19T12:42:52.935Z,45.67
2022-08-19T12:43:52.881Z,45.98
2022-08-19T12:44:52.802Z,45.89
2022-08-19T12:45:52.734Z,45.76
2022-08-19T12:46:53.894Z,45.57
2022-08-19T12:47:54.785Z,45.27
2022-08-19T12:48:55.307Z,45.67
2022-08-19T12:49:55.480Z,45.67
2022-08-19T12:50:52.427Z,45.07
2022-08-19T12:51:52.376Z,44.87
2022-08-19T12:52:52.303Z,45.17
2022-08-19T12:53:52.239Z,45.29
2022-08-19T12:54:53.812Z,45.29
2022-08-19T12:55:53.352Z,45.49
2022-08-19T12:56:52.065Z,45.59
2022-08-19T12:57:51.999Z,45.09
2022-08-19T12:58:52.970Z,45.49
2022-08-19T12:59:51.883Z,45.29
2022-08-19T13:00:51.849Z,44.70
2022-08-19T13:01:51.773Z,44.80
2022-08-19T13:02:51.683Z,44.90
2022-08-19T13:03:51.647Z,45.29
2022-08-19T13:04:51.563Z,45.29
2022-08-19T13:05:51.504Z,45.19
2022-08-19T13:06:51.449Z,45.29
2022-08-19T13:07:51.390Z,45.00
2022-08-19T13:08:51.310Z,45.00
2022-08-19T13:09:51.295Z,44.50
2022-08-19T13:10:51.205Z,44.70
2022-08-19T13:11:51.136Z,44.90
2022-08-19T13:12:51.066Z,44.90
2022-08-19T13:13:53.561Z,44.90
2022-08-19T13:14:50.959Z,45.09
2022-08-19T13:15:50.890Z,45.00
2022-08-19T13:16:50.817Z,44.80
2022-08-19T13:17:50.804Z,44.92
2022-08-19T13:18:50.712Z,45.12
2022-08-19T13:19:50.638Z,44.23
2022-08-19T13:20:52.783Z,44.13
2022-08-19T13:21:50.557Z,44.02
2022-08-19T13:22:50.467Z,44.02
2022-08-19T13:23:50.410Z,43.21
2022-08-19T13:24:50.348Z,43.02
2022-08-19T13:25:51.048Z,42.92
2022-08-19T13:26:50.208Z,43.02
2022-08-19T13:27:50.197Z,43.02
2022-08-19T13:28:50.085Z,42.62
2022-08-19T13:29:50.024Z,42.43
2022-08-19T13:30:49.965Z,42.72
2022-08-19T13:31:49.918Z,43.21
2022-08-19T13:32:49.841Z,43.12
2022-08-19T13:33:49.786Z,42.32
2022-08-19T13:34:49.705Z,42.40
2022-08-19T13:35:49.683Z,42.40
2022-08-19T13:36:49.583Z,42.50
2022-08-19T13:37:49.547Z,42.70
2022-08-19T13:38:49.533Z,42.70
2022-08-19T13:39:49.457Z,42.70
2022-08-19T13:40:49.347Z,43.10
2022-08-19T13:41:49.291Z,42.99
2022-08-19T13:42:49.221Z,43.10
2022-08-19T13:43:49.177Z,43.10
2022-08-19T13:44:49.095Z,43.19
2022-08-19T13:45:49.048Z,43.59
2022-08-19T13:46:48.961Z,43.39
2022-08-19T13:47:48.917Z,43.10
2022-08-19T13:48:48.837Z,43.10
2022-08-19T13:49:50.129Z,43.69
2022-08-19T13:50:48.763Z,44.01
2022-08-19T13:51:48.797Z,44.10
2022-08-19T13:52:48.832Z,44.20
2022-08-19T13:53:48.539Z,44.10
2022-08-19T13:54:48.484Z,44.20
2022-08-19T13:55:48.433Z,44.80
2022-08-19T13:56:48.360Z,44.20
2022-08-19T13:57:48.467Z,44.40
2022-08-19T13:58:48.234Z,44.40
2022-08-19T13:59:50.518Z,44.50
2022-08-19T14:00:48.698Z,44.60
2022-08-19T14:01:48.047Z,44.60
2022-08-19T14:02:47.972Z,44.70
2022-08-19T14:03:47.920Z,44.80
2022-08-19T14:04:47.888Z,44.60
2022-08-19T14:05:47.814Z,44.50
2022-08-19T14:06:47.748Z,44.48
2022-08-19T14:07:50.014Z,44.58
2022-08-19T14:08:47.611Z,44.58
2022-08-19T14:09:47.534Z,44.38
2022-08-19T14:10:47.475Z,44.28
2022-08-19T14:11:47.436Z,43.88
2022-08-19T14:12:47.370Z,43.88
2022-08-19T14:13:47.331Z,44.28
2022-08-19T14:14:47.243Z,44.09
2022-08-19T14:15:47.178Z,44.10
2022-08-19T14:16:47.127Z,44.01
2022-08-19T14:17:47.059Z,44.31
2022-08-19T14:18:46.992Z,44.10
2022-08-19T14:19:48.207Z,44.31
2022-08-19T14:20:46.876Z,44.60
2022-08-19T14:21:46.796Z,44.50
2022-08-19T14:22:46.745Z,44.80
2022-08-19T14:23:46.671Z,44.60
2022-08-19T14:24:47.762Z,44.80
2022-08-19T14:25:46.567Z,44.80
2022-08-19T14:26:46.504Z,45.00
2022-08-19T14:27:46.434Z,45.09
2022-08-19T14:28:46.374Z,44.80
2022-08-19T14:29:46.301Z,44.80
2022-08-19T14:30:46.237Z,44.90
2022-08-19T14:31:46.204Z,45.29
2022-08-19T14:32:46.134Z,45.00
2022-08-19T14:33:46.073Z,44.90
2022-08-19T14:34:45.997Z,45.19
2022-08-19T14:35:46.034Z,45.09
2022-08-19T14:36:45.877Z,44.90
2022-08-19T14:37:46.322Z,44.40
2022-08-19T14:38:45.757Z,44.50
2022-08-19T14:39:45.758Z,44.80
2022-08-19T14:40:45.617Z,44.70
2022-08-19T14:41:45.572Z,44.50
2022-08-19T14:42:45.515Z,44.31
2022-08-19T14:43:45.455Z,44.38
2022-08-19T14:44:45.384Z,43.88
2022-08-19T14:45:45.309Z,43.88
2022-08-19T14:46:49.261Z,43.79
2022-08-19T14:47:45.350Z,43.69
2022-08-19T14:48:45.129Z,43.49
2022-08-19T14:49:48.574Z,43.59
2022-08-19T14:50:45.031Z,43.39
2022-08-19T14:51:44.943Z,42.99
2022-08-19T14:52:44.904Z,43.19
2022-08-19T14:53:44.809Z,42.30
2022-08-19T14:54:44.770Z,42.50
2022-08-19T14:55:44.705Z,42.21
2022-08-19T14:56:44.639Z,42.11
2022-08-19T14:57:44.636Z,42.30
2022-08-19T14:58:44.529Z,42.40
2022-08-19T14:59:44.458Z,42.40
2022-08-19T15:00:44.393Z,42.80
2022-08-19T15:01:44.367Z,43.10
2022-08-19T15:02:44.258Z,42.50
2022-08-19T15:03:44.204Z,42.80
2022-08-19T15:04:44.136Z,42.70
2022-08-19T15:05:44.088Z,42.80
2022-08-19T15:06:44.023Z,42.80
2022-08-19T15:07:43.970Z,43.02
2022-08-19T15:08:43.895Z,43.21
2022-08-19T15:09:43.841Z,43.02
2022-08-19T15:10:43.774Z,43.21
2022-08-19T15:11:43.701Z,43.31
2022-08-19T15:12:43.658Z,43.31
2022-08-19T15:13:43.591Z,43.41
2022-08-19T15:14:43.513Z,43.31
2022-08-19T15:15:43.457Z,43.41
2022-08-19T15:16:43.408Z,43.61
2022-08-19T15:17:46.369Z,43.61
2022-08-19T15:18:43.280Z,44.01
2022-08-19T15:19:44.445Z,44.01
2022-08-19T15:20:43.168Z,44.31
2022-08-19T15:21:43.088Z,43.93
2022-08-19T15:22:43.027Z,44.13
2022-08-19T15:23:45.614Z,44.23
2022-08-19T15:24:48.151Z,44.52
2022-08-19T15:25:44.000Z,44.32
2022-08-19T15:26:42.784Z,44.23
2022-08-19T15:27:42.724Z,44.54
2022-08-19T15:28:42.646Z,44.64
2022-08-19T15:29:42.600Z,44.64
2022-08-19T15:30:42.543Z,44.74
2022-08-19T15:31:42.469Z,44.94
2022-08-19T15:32:46.161Z,44.94
2022-08-19T15:33:42.352Z,44.74
2022-08-19T15:34:42.294Z,44.94
2022-08-19T15:35:42.218Z,44.94
2022-08-19T15:36:42.164Z,44.94
2022-08-19T15:37:43.315Z,44.74
2022-08-19T15:38:45.937Z,44.84
2022-08-19T15:39:42.013Z,44.64
2022-08-19T15:40:41.917Z,44.64
2022-08-19T15:41:41.870Z,44.74
2022-08-19T15:42:41.802Z,44.84
2022-08-19T15:43:41.758Z,44.94
2022-08-19T15:44:41.674Z,44.84
2022-08-19T15:45:44.275Z,44.86
2022-08-19T15:46:41.539Z,45.06
2022-08-19T15:47:41.481Z,45.16
2022-08-19T15:48:41.423Z,45.26
2022-08-19T15:49:41.393Z,45.36
2022-08-19T15:50:41.284Z,45.36
2022-08-19T15:51:41.228Z,45.36
2022-08-19T15:52:49.497Z,45.36
2022-08-19T15:53:41.102Z,44.96
2022-08-19T15:54:41.057Z,45.06
2022-08-19T15:55:42.506Z,45.26
2022-08-19T15:56:40.921Z,45.36
2022-08-19T15:57:40.853Z,45.36
2022-08-19T15:58:40.810Z,45.65
2022-08-19T15:59:44.435Z,46.05
2022-08-19T16:00:40.680Z,46.05
2022-08-19T16:01:41.123Z,45.18
2022-08-19T16:02:40.558Z,45.48
2022-08-19T16:03:41.365Z,45.78
2022-08-19T16:04:40.415Z,45.68
2022-08-19T16:05:40.353Z,45.78
2022-08-19T16:06:40.287Z,45.87
2022-08-19T16:07:40.259Z,45.48
2022-08-19T16:08:48.755Z,45.57
2022-08-19T16:09:40.105Z,45.48
2022-08-19T16:10:40.058Z,45.68
2022-08-19T16:11:39.979Z,45.48
2022-08-19T16:12:39.928Z,45.68
2022-08-19T16:13:39.885Z,45.78
2022-08-19T16:14:39.809Z,45.78
2022-08-19T16:15:39.737Z,45.87
2022-08-19T16:16:39.669Z,45.97
2022-08-19T16:17:39.615Z,45.78
2022-08-19T16:18:39.558Z,45.70
2022-08-19T16:19:43.158Z,45.79
2022-08-19T16:20:39.423Z,45.70
2022-08-19T16:21:39.377Z,46.00
2022-08-19T16:22:39.303Z,46.00
2022-08-19T16:23:39.227Z,46.00
2022-08-19T16:24:39.184Z,46.09
2022-08-19T16:25:39.125Z,46.09
2022-08-19T16:26:39.065Z,46.09
2022-08-19T16:27:38.983Z,46.19
2022-08-19T16:28:38.922Z,46.30
2022-08-19T16:29:39.159Z,46.39
2022-08-19T16:30:38.801Z,46.39
2022-08-19T16:31:38.793Z,46.39
2022-08-19T16:32:38.692Z,46.19
2022-08-19T16:33:38.620Z,46.19
2022-08-19T16:34:38.559Z,46.00
2022-08-19T16:35:38.507Z,46.19
2022-08-19T16:36:38.438Z,46.09
2022-08-19T16:37:39.566Z,46.19
2022-08-19T16:38:38.301Z,46.39
2022-08-19T16:39:38.318Z,46.30
2022-08-19T16:40:38.185Z,46.19
2022-08-19T16:41:38.125Z,46.09
2022-08-19T16:42:38.049Z,46.19
2022-08-19T16:43:38.796Z,46.02
2022-08-19T16:44:37.939Z,45.82
2022-08-19T16:45:37.885Z,45.72
2022-08-19T16:46:37.795Z,45.62
2022-08-19T16:47:37.744Z,46.12
2022-08-19T16:48:37.675Z,46.02
2022-08-19T16:49:52.965Z,46.12
2022-08-19T16:50:49.287Z,46.12
2022-08-19T16:51:37.498Z,46.02
2022-08-19T16:52:37.426Z,46.22
2022-08-19T16:53:37.381Z,46.22
2022-08-19T16:54:37.319Z,45.92
2022-08-19T16:55:37.266Z,46.02
2022-08-19T16:56:37.196Z,45.82
2022-08-19T16:57:37.128Z,45.42
2022-08-19T16:58:37.047Z,45.52
2022-08-19T16:59:37.008Z,45.34
2022-08-19T17:00:36.946Z,45.34
2022-08-19T17:01:36.912Z,45.64
2022-08-19T17:02:36.806Z,45.54
2022-08-19T17:03:37.020Z,45.84
2022-08-19T17:04:36.678Z,46.04
2022-08-19T17:05:36.630Z,45.94
2022-08-19T17:06:36.558Z,45.84
2022-08-19T17:07:37.282Z,46.04
2022-08-19T17:08:36.449Z,46.14
2022-08-19T17:09:36.379Z,46.34
2022-08-19T17:10:36.304Z,46.44
2022-08-19T17:11:36.252Z,46.46
2022-08-19T17:12:36.179Z,46.56
2022-08-19T17:13:36.143Z,46.46
2022-08-19T17:14:36.069Z,46.66
2022-08-19T17:15:35.995Z,46.36
2022-08-19T17:16:35.946Z,46.26
2022-08-19T17:17:35.882Z,46.36
2022-08-19T17:18:35.825Z,46.46
2022-08-19T17:19:35.774Z,46.66
2022-08-19T17:20:35.679Z,46.66
2022-08-19T17:21:35.627Z,46.76
2022-08-19T17:22:35.553Z,46.86
2022-08-19T17:23:42.540Z,46.76
2022-08-19T17:24:35.454Z,46.76
2022-08-19T17:25:35.373Z,46.76
2022-08-19T17:26:35.318Z,46.78
2022-08-19T17:27:35.262Z,46.58
2022-08-19T17:28:35.197Z,46.58
2022-08-19T17:29:35.129Z,46.78
2022-08-19T17:30:35.071Z,46.98
2022-08-19T17:31:35.026Z,46.78
2022-08-19T17:32:34.941Z,46.98
2022-08-19T17:33:34.868Z,46.88
2022-08-19T17:34:34.812Z,47.08
2022-08-19T17:35:34.747Z,47.08
2022-08-19T17:36:34.697Z,47.08
2022-08-19T17:37:34.967Z,47.17
2022-08-19T17:38:34.566Z,47.28
2022-08-19T17:39:39.467Z,47.38
2022-08-19T17:40:34.451Z,47.08
2022-08-19T17:41:34.367Z,47.08
2022-08-19T17:42:34.307Z,47.38
2022-08-19T17:43:38.948Z,47.40
2022-08-19T17:44:34.192Z,47.50
2022-08-19T17:45:34.117Z,47.60
2022-08-19T17:46:34.082Z,47.40
2022-08-19T17:47:34.011Z,47.70
2022-08-19T17:48:33.943Z,47.70
2022-08-19T17:49:37.876Z,47.80
2022-08-19T17:50:33.810Z,47.70
2022-08-19T17:51:33.763Z,47.80
2022-08-19T17:52:33.696Z,47.99
2022-08-19T17:53:33.632Z,47.99
2022-08-19T17:54:33.960Z,47.89
2022-08-19T17:55:33.513Z,48.19
2022-08-19T17:56:33.447Z,48.29
2022-08-19T17:57:33.383Z,48.29
2022-08-19T17:58:33.319Z,48.29
2022-08-19T17:59:33.263Z,48.29
2022-08-19T18:00:33.202Z,48.39
2022-08-19T18:01:43.922Z,48.41
2022-08-19T18:02:33.065Z,48.52
2022-08-19T18:03:33.009Z,48.52
2022-08-19T18:04:32.934Z,48.71
2022-08-19T18:05:32.872Z,48.71
2022-08-19T18:06:32.831Z,48.71
2022-08-19T18:07:33.534Z,48.71
2022-08-19T18:08:32.702Z,48.81
2022-08-19T18:09:42.003Z,48.71
2022-08-19T18:10:35.294Z,49.01
2022-08-19T18:11:32.502Z,48.81
2022-08-19T18:12:32.454Z,48.81
2022-08-19T18:13:33.589Z,48.91
2022-08-19T18:14:33.981Z,49.01
2022-08-19T18:15:32.263Z,49.01
2022-08-19T18:16:32.188Z,49.01
2022-08-19T18:17:32.123Z,49.11
2022-08-19T18:18:32.078Z,49.11
2022-08-19T18:19:41.414Z,49.31
2022-08-19T18:20:31.938Z,49.31
2022-08-19T18:21:31.891Z,49.31
2022-08-19T18:22:31.822Z,49.31
2022-08-19T18:23:45.532Z,49.31
2022-08-19T18:24:31.703Z,49.21
2022-08-19T18:25:33.187Z,49.33
2022-08-19T18:26:31.577Z,49.33
2022-08-19T18:27:31.495Z,49.43
2022-08-19T18:28:31.452Z,49.53
2022-08-19T18:29:31.387Z,49.53
2022-08-19T18:30:31.308Z,49.53
2022-08-19T18:31:32.032Z,49.53
2022-08-19T18:32:31.184Z,49.63
2022-08-19T18:33:31.129Z,49.63
2022-08-19T18:34:31.073Z,49.63
2022-08-19T18:35:31.003Z,49.63
2022-08-19T18:36:52.587Z,49.73
2022-08-19T18:37:30.996Z,49.83
2022-08-19T18:38:30.809Z,49.93
2022-08-19T18:39:30.765Z,49.83
2022-08-19T18:40:30.685Z,50.03
2022-08-19T18:41:30.634Z,50.05
2022-08-19T18:42:30.577Z,50.15
2022-08-19T18:43:30.545Z,50.15
2022-08-19T18:44:30.449Z,50.15
2022-08-19T18:45:30.379Z,50.25
2022-08-19T18:46:33.026Z,50.35
2022-08-19T18:47:30.250Z,50.35
2022-08-19T18:48:30.209Z,50.35
2022-08-19T18:49:30.137Z,50.45
2022-08-19T18:50:30.057Z,50.55
2022-08-19T18:51:30.012Z,50.65
2022-08-19T18:52:29.932Z,50.75
2022-08-19T18:53:29.885Z,50.75
2022-08-19T18:54:29.812Z,50.75
2022-08-19T18:55:30.965Z,50.87
2022-08-19T18:56:29.699Z,50.87
2022-08-19T18:57:29.645Z,50.98
2022-08-19T18:58:29.569Z,51.07
2022-08-19T18:59:29.499Z,51.17
2022-08-19T19:00:29.454Z,51.17
2022-08-19T19:01:30.314Z,51.27
2022-08-19T19:02:29.376Z,51.47
2022-08-19T19:03:29.311Z,51.47
2022-08-19T19:04:29.255Z,51.57
2022-08-19T19:05:29.175Z,51.70
2022-08-19T19:06:29.114Z,51.79
2022-08-19T19:07:29.077Z,51.79
2022-08-19T19:08:29.009Z,51.89
2022-08-19T19:09:28.921Z,52.00
2022-08-19T19:10:28.858Z,52.00
2022-08-19T19:11:28.813Z,52.19
2022-08-19T19:12:28.750Z,52.19
2022-08-19T19:13:28.684Z,52.19
2022-08-19T19:14:48.054Z,52.29
2022-08-19T19:15:28.556Z,52.19
2022-08-19T19:16:28.491Z,52.42
2022-08-19T19:17:28.479Z,52.51
2022-08-19T19:18:29.045Z,52.51
2022-08-19T19:19:28.321Z,52.72
2022-08-19T19:20:35.006Z,52.62
2022-08-19T19:21:31.849Z,52.81
2022-08-19T19:22:28.079Z,52.81
2022-08-19T19:23:28.046Z,52.81
2022-08-19T19:24:28.001Z,52.92
2022-08-19T19:25:27.929Z,52.92
2022-08-19T19:26:27.882Z,52.92
2022-08-19T19:27:27.812Z,52.92
2022-08-19T19:28:27.761Z,53.11
2022-08-19T19:29:27.672Z,53.11
2022-08-19T19:30:27.604Z,53.22
2022-08-19T19:31:27.577Z,53.34
2022-08-19T19:32:27.483Z,53.34
2022-08-19T19:33:27.430Z,53.44
2022-08-19T19:34:29.365Z,53.64
2022-08-19T19:35:27.295Z,53.64
2022-08-19T19:36:27.230Z,53.74
2022-08-19T19:37:27.187Z,53.94
2022-08-19T19:38:27.113Z,53.94
2022-08-19T19:39:34.024Z,54.04
2022-08-19T19:40:27.084Z,54.04
2022-08-19T19:41:26.912Z,54.14
2022-08-19T19:42:26.852Z,54.04
2022-08-19T19:43:28.376Z,54.27
2022-08-19T19:44:30.630Z,54.27
2022-08-19T19:45:26.662Z,54.36
2022-08-19T19:46:26.613Z,54.36
2022-08-19T19:47:26.536Z,54.46
2022-08-19T19:48:26.498Z,54.46
2022-08-19T19:49:26.484Z,54.46
2022-08-19T19:50:26.349Z,54.66
2022-08-19T19:51:26.303Z,54.66
2022-08-19T19:52:26.241Z,54.66
2022-08-19T19:53:26.211Z,54.76
2022-08-19T19:54:26.096Z,54.66
2022-08-19T19:55:26.877Z,54.66
2022-08-19T19:56:25.972Z,54.66
2022-08-19T19:57:25.913Z,54.86
2022-08-19T19:58:29.004Z,54.76
2022-08-19T19:59:25.786Z,54.86
2022-08-19T20:00:25.679Z,54.96
2022-08-19T20:01:26.495Z,54.96
2022-08-19T20:02:25.601Z,55.16
2022-08-19T20:03:25.547Z,55.16
2022-08-19T20:04:25.468Z,55.19
2022-08-19T20:05:25.423Z,55.29
2022-08-19T20:06:25.355Z,55.29
2022-08-19T20:07:25.313Z,55.39
2022-08-19T20:08:25.233Z,55.49
2022-08-19T20:09:39.123Z,55.39
2022-08-19T20:10:25.130Z,55.49
2022-08-19T20:11:25.048Z,55.49
2022-08-19T20:12:24.983Z,55.58
2022-08-19T20:13:24.935Z,55.69
2022-08-19T20:14:24.858Z,55.58
2022-08-19T20:15:24.795Z,55.58
2022-08-19T20:16:24.684Z,55.58
2022-08-19T20:17:24.659Z,55.69
2022-08-19T20:18:24.617Z,55.79
2022-08-19T20:19:24.565Z,55.69
2022-08-19T20:20:24.467Z,55.79
2022-08-19T20:21:24.413Z,55.69
2022-08-19T20:22:24.352Z,55.79
2022-08-19T20:23:24.291Z,55.58
2022-08-19T20:24:24.218Z,55.69
2022-08-19T20:25:24.943Z,55.69
2022-08-19T20:26:32.098Z,55.49
2022-08-19T20:27:25.697Z,55.49
2022-08-19T20:28:23.977Z,55.49
2022-08-19T20:29:39.094Z,55.49
2022-08-19T20:30:23.843Z,55.79
2022-08-19T20:31:26.038Z,55.69
2022-08-19T20:32:23.714Z,55.69
2022-08-19T20:33:23.664Z,55.79
2022-08-19T20:34:23.587Z,55.79
2022-08-19T20:35:23.542Z,55.79
2022-08-19T20:36:23.471Z,55.79
2022-08-19T20:37:23.408Z,55.99
2022-08-19T20:38:23.342Z,55.99
2022-08-19T20:39:23.276Z,55.99
2022-08-19T20:40:23.205Z,56.09
2022-08-19T20:41:23.157Z,56.09
2022-08-19T20:42:23.087Z,56.09
2022-08-19T20:43:23.036Z,56.18
2022-08-19T20:44:22.957Z,56.18
2022-08-19T20:45:32.223Z,56.29
2022-08-19T20:46:22.840Z,56.31
2022-08-19T20:47:22.768Z,56.21
2022-08-19T20:48:22.709Z,56.31
2022-08-19T20:49:22.665Z,56.41
2022-08-19T20:50:22.545Z,56.31
2022-08-19T20:51:22.510Z,56.31
2022-08-19T20:52:22.453Z,56.31
2022-08-19T20:53:22.385Z,56.41
2022-08-19T20:54:22.352Z,56.41
2022-08-19T20:55:27.014Z,56.31
2022-08-19T20:56:22.199Z,56.41
2022-08-19T20:57:22.135Z,56.31
2022-08-19T20:58:22.082Z,56.51
2022-08-19T20:59:22.024Z,56.51
2022-08-19T21:00:21.950Z,56.61
2022-08-19T21:01:21.922Z,56.51
2022-08-19T21:02:21.832Z,56.61
2022-08-19T21:03:21.772Z,56.61
2022-08-19T21:04:21.710Z,56.71
2022-08-19T21:05:21.630Z,56.61
2022-08-19T21:06:23.075Z,56.71
2022-08-19T21:07:21.492Z,56.71
2022-08-19T21:08:21.407Z,56.81
2022-08-19T21:09:21.392Z,56.71
2022-08-19T21:10:21.314Z,56.81
2022-08-19T21:11:21.265Z,56.81
2022-08-19T21:12:21.206Z,56.91
2022-08-19T21:13:21.161Z,56.91
2022-08-19T21:14:21.082Z,56.91
2022-08-19T21:15:21.033Z,56.91
2022-08-19T21:16:20.935Z,56.91
2022-08-19T21:17:20.890Z,57.11
2022-08-19T21:18:20.850Z,57.11
2022-08-19T21:19:23.938Z,57.11
2022-08-19T21:20:20.705Z,57.34
2022-08-19T21:21:20.648Z,57.44
2022-08-19T21:22:20.560Z,57.44
2022-08-19T21:23:20.533Z,57.64
2022-08-19T21:24:20.482Z,57.84
2022-08-19T21:25:23.106Z,58.04
2022-08-19T21:26:20.325Z,58.14
2022-08-19T21:27:20.249Z,58.34
2022-08-19T21:28:29.967Z,58.34
2022-08-19T21:29:20.131Z,58.44
2022-08-19T21:30:20.061Z,58.54
2022-08-19T21:31:20.004Z,58.73
2022-08-19T21:32:19.954Z,58.56
2022-08-19T21:33:19.877Z,58.86
2022-08-19T21:34:19.817Z,58.76
2022-08-19T21:35:19.738Z,58.56
2022-08-19T21:36:19.679Z,58.86
2022-08-19T21:37:25.036Z,59.17
2022-08-19T21:38:19.557Z,58.97
2022-08-19T21:39:19.505Z,58.97
2022-08-19T21:40:19.522Z,58.86
2022-08-19T21:41:19.324Z,58.97
2022-08-19T21:42:19.312Z,59.27
2022-08-19T21:43:23.825Z,59.36
2022-08-19T21:44:19.171Z,59.06
2022-08-19T21:45:19.126Z,59.06
2022-08-19T21:46:19.054Z,59.27
2022-08-19T21:47:18.999Z,59.27
2022-08-19T21:48:18.938Z,59.36
2022-08-19T21:49:18.885Z,59.47
2022-08-19T21:50:18.806Z,59.36
2022-08-19T21:51:18.746Z,59.36
2022-08-19T21:52:18.672Z,59.36
2022-08-19T21:53:18.618Z,59.47
2022-08-19T21:54:18.541Z,59.17
2022-08-19T21:55:18.467Z,59.36
2022-08-19T21:56:18.418Z,59.30
2022-08-19T21:57:18.355Z,59.39
2022-08-19T21:58:18.305Z,59.49
2022-08-19T21:59:18.265Z,59.49
2022-08-19T22:00:18.166Z,59.69
2022-08-19T22:01:19.705Z,59.39
2022-08-19T22:02:20.796Z,59.69
2022-08-19T22:03:17.973Z,59.79
2022-08-19T22:04:17.908Z,59.89
2022-08-19T22:05:17.848Z,59.79
2022-08-19T22:06:17.796Z,59.79
2022-08-19T22:07:18.513Z,59.89
2022-08-19T22:08:17.659Z,59.99
2022-08-19T22:09:17.609Z,59.99
2022-08-19T22:10:17.540Z,60.22
2022-08-19T22:11:17.469Z,60.12
2022-08-19T22:12:17.430Z,60.12
2022-08-19T22:13:17.392Z,60.32
2022-08-19T22:14:17.296Z,60.22
2022-08-19T22:15:17.228Z,60.22
2022-08-19T22:16:17.173Z,60.12
2022-08-19T22:17:17.087Z,60.12
2022-08-19T22:18:17.029Z,60.32
2022-08-19T22:19:19.245Z,60.12
2022-08-19T22:20:16.932Z,60.22
2022-08-19T22:21:20.227Z,60.22
2022-08-19T22:22:16.781Z,60.12
2022-08-19T22:23:16.728Z,60.52
2022-08-19T22:24:16.656Z,60.42
2022-08-19T22:25:31.430Z,60.42
2022-08-19T22:26:16.544Z,60.42
2022-08-19T22:27:16.457Z,60.52
2022-08-19T22:28:18.636Z,60.52
2022-08-19T22:29:17.252Z,60.62
2022-08-19T22:30:16.282Z,60.55
2022-08-19T22:31:16.219Z,60.85
2022-08-19T22:32:27.079Z,60.75
2022-08-19T22:33:16.093Z,60.75
2022-08-19T22:34:16.018Z,60.75
2022-08-19T22:35:15.954Z,60.85
2022-08-19T22:36:15.883Z,61.05
2022-08-19T22:37:15.830Z,61.25
2022-08-19T22:38:15.778Z,61.35
2022-08-19T22:39:15.709Z,61.58
2022-08-19T22:40:15.659Z,61.58
2022-08-19T22:41:15.586Z,61.38
2022-08-19T22:42:15.524Z,61.38
2022-08-19T22:43:17.436Z,61.68
2022-08-19T22:44:15.393Z,61.68
2022-08-19T22:45:16.051Z,61.78
2022-08-19T22:46:17.569Z,61.78
2022-08-19T22:47:15.190Z,61.88
2022-08-19T22:48:15.128Z,61.98
2022-08-19T22:49:15.082Z,62.08
2022-08-19T22:50:15.004Z,62.08
2022-08-19T22:51:14.967Z,62.08
2022-08-19T22:52:14.885Z,62.21
2022-08-19T22:53:14.820Z,62.51
2022-08-19T22:54:14.763Z,62.51
2022-08-19T22:55:14.696Z,62.41
2022-08-19T22:56:15.611Z,62.31
2022-08-19T22:57:14.568Z,62.71
2022-08-19T22:58:14.510Z,62.71
2022-08-19T22:59:14.435Z,62.71
2022-08-19T23:00:14.380Z,62.92
2022-08-19T23:01:14.633Z,62.92
2022-08-19T23:02:14.261Z,63.24
2022-08-19T23:03:14.189Z,63.34
2022-08-19T23:04:14.158Z,63.24
2022-08-19T23:05:14.046Z,63.24
2022-08-19T23:06:13.990Z,63.54
2022-08-19T23:07:15.526Z,63.64
2022-08-19T23:08:13.865Z,63.64
2022-08-19T23:09:16.685Z,63.45
2022-08-19T23:10:13.752Z,63.34
2022-08-19T23:11:13.689Z,63.45
2022-08-19T23:12:13.610Z,63.54
2022-08-19T23:13:14.332Z,63.34
2022-08-19T23:14:13.486Z,63.54
2022-08-19T23:15:13.419Z,63.75
2022-08-19T23:16:13.386Z,63.64
2022-08-19T23:17:13.292Z,63.95
2022-08-19T23:18:13.237Z,63.64
2022-08-19T23:19:13.178Z,63.87
2022-08-19T23:20:13.100Z,64.18
2022-08-19T23:21:13.036Z,64.18
2022-08-19T23:22:12.994Z,64.28
2022-08-19T23:23:12.912Z,64.37
2022-08-19T23:24:12.860Z,64.37
2022-08-19T23:25:12.773Z,64.18
2022-08-19T23:26:12.740Z,64.28
2022-08-19T23:27:12.664Z,64.18
2022-08-19T23:28:12.605Z,64.28
2022-08-19T23:29:12.532Z,64.18
2022-08-19T23:30:12.476Z,64.28
2022-08-19T23:31:14.755Z,64.37
2022-08-19T23:32:12.352Z,64.37
2022-08-19T23:33:13.028Z,64.58
2022-08-19T23:34:12.212Z,64.68
2022-08-19T23:35:12.149Z,64.68
2022-08-19T23:36:12.055Z,64.68
2022-08-19T23:37:12.826Z,64.68
2022-08-19T23:38:11.969Z,64.58
2022-08-19T23:39:11.901Z,64.48
2022-08-19T23:40:11.883Z,64.68
2022-08-19T23:41:11.781Z,64.48
2022-08-19T23:42:11.696Z,64.37
2022-08-19T23:43:14.728Z,64.37
2022-08-19T23:44:14.917Z,64.28
2022-08-19T23:45:11.529Z,64.28
2022-08-19T23:46:11.489Z,64.28
2022-08-19T23:47:11.397Z,64.18
2022-08-19T23:48:11.349Z,64.28
2022-08-19T23:49:11.288Z,64.28
2022-08-19T23:50:11.188Z,64.48
2022-08-19T23:51:11.148Z,64.58
2022-08-19T23:52:11.077Z,64.58
2022-08-19T23:53:13.386Z,64.68
2022-08-19T23:54:10.976Z,64.68
2022-08-19T23:55:10.896Z,64.81
2022-08-19T23:56:10.817Z,64.91
2022-08-19T23:57:13.231Z,64.91
2022-08-19T23:58:10.700Z,64.81
2022-08-19T23:59:10.625Z,64.71
